Freetown, Sierra Leone
Current Conditions -  °F | °C
As of 1:00 PM on Saturday 25 Oct 2014 (Local Time) from GUCY Reporting Station
Scattered Clouds Scattered Clouds  
Wind Chill: 86°   Ceiling: Unl
Heat Index: 97°   Visibility: 6mi
Dew Point: 77°   Wind: 9mph
Humidity: 74%   Direction: 210°SSW
Pressure: 29.88"   Gusts: NA
Location:  8.49°N, 13.24°W
Report Text: GUCY 251300Z 21008KT 9999 FEW015 SCT110 30/25 Q1012 NOSIG
Loading
Personal Weather Stations






























Interactive Weather Map
Tropical Storm Tracking
New forecast layout! Learn more

10-Day Weather Forecast

Advertisements
Track Severe Weather on mobile